createdAt,value
2023-06-06T00:04:05.524Z,100.00
2023-06-06T00:09:07.813Z,100.00
2023-06-06T00:14:11.161Z,100.00
2023-06-06T00:19:14.491Z,100.00
2023-06-06T00:24:17.154Z,100.00
2023-06-06T00:29:19.383Z,100.00
2023-06-06T00:34:21.542Z,100.00
2023-06-06T00:39:23.878Z,100.00
2023-06-06T00:44:26.177Z,100.00
2023-06-06T00:49:28.852Z,100.00
2023-06-06T00:54:32.938Z,100.00
2023-06-06T00:59:36.508Z,100.00
2023-06-06T01:04:42.220Z,100.00
2023-06-06T01:09:46.709Z,100.00
2023-06-06T01:14:53.810Z,100.00
2023-06-06T01:19:57.592Z,100.00
2023-06-06T01:25:00.037Z,100.00
2023-06-06T01:30:03.900Z,100.00
2023-06-06T01:35:17.500Z,100.00
2023-06-06T01:40:22.411Z,100.00
2023-06-06T01:45:30.820Z,100.00
2023-06-06T01:50:36.666Z,100.00
2023-06-06T01:55:39.532Z,100.00
2023-06-06T02:00:41.797Z,100.00
2023-06-06T02:05:47.056Z,100.00
2023-06-06T02:10:49.260Z,100.00
2023-06-06T02:15:51.848Z,100.00
2023-06-06T02:20:54.058Z,100.00
2023-06-06T02:25:56.400Z,100.00
2023-06-06T02:30:58.651Z,100.00
2023-06-06T02:36:01.748Z,100.00
2023-06-06T02:41:04.265Z,100.00
2023-06-06T02:46:06.635Z,100.00
2023-06-06T02:51:09.133Z,100.00
2023-06-06T02:56:15.620Z,100.00
2023-06-06T03:01:22.242Z,100.00
2023-06-06T03:06:24.583Z,100.00
2023-06-06T03:11:27.107Z,100.00
2023-06-06T03:16:29.565Z,100.00
2023-06-06T03:21:32.164Z,100.00
2023-06-06T03:26:34.351Z,100.00
2023-06-06T03:31:36.604Z,100.00
2023-06-06T03:36:38.801Z,100.00
2023-06-06T03:41:40.945Z,100.00
2023-06-06T03:46:43.650Z,100.00
2023-06-06T03:51:46.047Z,100.00
2023-06-06T03:56:48.311Z,100.00
2023-06-06T04:01:54.466Z,100.00
2023-06-06T04:06:58.109Z,100.00
2023-06-06T04:12:00.581Z,100.00
2023-06-06T04:17:03.476Z,100.00
2023-06-06T04:22:06.662Z,100.00
2023-06-06T04:27:09.288Z,100.00
2023-06-06T04:32:14.518Z,100.00
2023-06-06T04:37:18.680Z,100.00
2023-06-06T04:42:22.321Z,100.00
2023-06-06T04:47:24.782Z,100.00
2023-06-06T04:52:27.049Z,100.00
2023-06-06T04:57:29.273Z,100.00
2023-06-06T05:02:31.465Z,100.00
2023-06-06T05:07:33.731Z,100.00
2023-06-06T05:12:35.991Z,100.00
2023-06-06T05:17:38.303Z,100.00
2023-06-06T05:22:40.655Z,100.00
2023-06-06T05:27:42.952Z,100.00
2023-06-06T05:32:45.267Z,100.00
2023-06-06T05:37:47.647Z,100.00
2023-06-06T05:42:49.834Z,100.00
2023-06-06T05:47:52.084Z,100.00
2023-06-06T05:52:54.922Z,100.00
2023-06-06T05:57:57.490Z,99.16
2023-06-06T06:03:01.636Z,99.94
2023-06-06T06:08:05.526Z,100.00
2023-06-06T06:13:07.786Z,100.00
2023-06-06T06:18:10.112Z,99.94
2023-06-06T06:23:12.345Z,99.38
2023-06-06T06:28:22.159Z,98.30
2023-06-06T06:33:24.745Z,97.41
2023-06-06T06:38:27.003Z,97.31
2023-06-06T06:43:29.255Z,97.38
2023-06-06T06:48:37.607Z,97.30
2023-06-06T06:53:40.849Z,97.75
2023-06-06T06:58:43.418Z,98.38
2023-06-06T07:03:47.714Z,98.52
2023-06-06T07:08:50.829Z,98.67
2023-06-06T07:13:53.065Z,98.65
2023-06-06T07:18:55.385Z,98.43
2023-06-06T07:23:57.724Z,98.10
2023-06-06T07:29:00.289Z,97.06
2023-06-06T07:34:03.697Z,96.08
2023-06-06T07:39:06.215Z,95.74
2023-06-06T07:44:08.464Z,95.68
2023-06-06T07:49:10.978Z,94.83
2023-06-06T07:54:13.193Z,96.37
2023-06-06T07:59:15.363Z,98.51
2023-06-06T08:04:17.625Z,99.99
2023-06-06T08:09:19.869Z,100.00
2023-06-06T08:14:22.065Z,100.00
2023-06-06T08:19:24.658Z,100.00
2023-06-06T08:24:26.816Z,100.00
2023-06-06T08:29:29.022Z,100.00
2023-06-06T08:34:31.728Z,100.00
2023-06-06T08:39:33.945Z,100.00
2023-06-06T08:44:37.669Z,98.31
2023-06-06T08:49:40.206Z,92.77
2023-06-06T08:54:43.562Z,87.40
2023-06-06T08:59:45.772Z,86.98
2023-06-06T09:04:49.504Z,85.91
2023-06-06T09:09:53.432Z,80.23
2023-06-06T09:14:55.666Z,72.21
2023-06-06T09:20:00.249Z,66.07
2023-06-06T09:25:02.868Z,63.95
2023-06-06T09:30:05.560Z,62.39
2023-06-06T09:35:08.055Z,65.41
2023-06-06T09:40:18.871Z,67.30
2023-06-06T09:45:21.666Z,67.23
2023-06-06T09:50:24.164Z,71.16
2023-06-06T09:55:26.662Z,72.29
2023-06-06T10:00:30.277Z,73.26
2023-06-06T10:05:33.249Z,73.61
2023-06-06T10:10:35.675Z,69.70
2023-06-06T10:15:38.573Z,63.70
2023-06-06T10:20:43.608Z,57.26
2023-06-06T10:25:47.923Z,59.38
2023-06-06T10:31:21.574Z,59.05
2023-06-06T10:36:24.439Z,57.04
2023-06-06T10:41:26.949Z,58.40
2023-06-06T10:46:29.294Z,59.72
2023-06-06T10:51:36.505Z,59.23
2023-06-06T10:56:44.983Z,62.48
2023-06-06T11:01:47.566Z,65.73
2023-06-06T11:06:52.756Z,71.33
2023-06-06T11:12:13.390Z,72.61
2023-06-06T11:17:15.871Z,72.15
2023-06-06T11:22:23.602Z,71.80
2023-06-06T11:27:27.283Z,73.16
2023-06-06T11:32:29.587Z,76.71
2023-06-06T11:37:32.978Z,74.06
2023-06-06T11:42:35.477Z,76.18
2023-06-06T11:47:37.755Z,78.15
2023-06-06T11:52:50.050Z,79.10
2023-06-06T11:57:52.748Z,78.80
2023-06-06T12:02:57.444Z,80.80
2023-06-06T12:08:01.134Z,81.35
2023-06-06T12:13:03.754Z,84.09
2023-06-06T12:18:06.156Z,85.47
2023-06-06T12:23:08.473Z,87.45
2023-06-06T12:28:11.869Z,96.31
2023-06-06T12:33:14.129Z,95.06
2023-06-06T12:38:21.093Z,88.51
2023-06-06T12:43:23.772Z,87.17
2023-06-06T12:48:27.221Z,85.48
2023-06-06T12:53:29.689Z,87.57
2023-06-06T12:58:35.832Z,91.71
2023-06-06T13:03:39.727Z,90.36
2023-06-06T13:08:42.760Z,88.31
2023-06-06T13:13:45.981Z,87.46
2023-06-06T13:18:48.206Z,87.30
2023-06-06T13:23:53.351Z,86.37
2023-06-06T13:28:56.451Z,84.83
2023-06-06T13:33:58.808Z,83.23
2023-06-06T13:39:01.479Z,82.78
2023-06-06T13:44:05.018Z,81.83
2023-06-06T13:49:07.219Z,85.19
2023-06-06T13:54:11.727Z,88.35
2023-06-06T13:59:15.472Z,86.13
2023-06-06T14:04:18.026Z,85.43
2023-06-06T14:09:22.012Z,85.89
2023-06-06T14:14:25.124Z,85.20
2023-06-06T14:19:50.097Z,84.76
2023-06-06T14:24:54.245Z,86.43
2023-06-06T14:29:57.614Z,87.12
2023-06-06T14:35:06.637Z,87.10
2023-06-06T14:40:12.052Z,85.63
2023-06-06T14:45:15.743Z,84.00
2023-06-06T14:50:18.009Z,82.10
2023-06-06T14:55:20.480Z,81.49
2023-06-06T15:00:24.212Z,81.17
2023-06-06T15:05:28.464Z,79.12
2023-06-06T15:10:30.703Z,78.64
2023-06-06T15:15:33.107Z,78.02
2023-06-06T15:20:35.815Z,78.24
2023-06-06T15:25:38.029Z,79.76
2023-06-06T15:30:40.177Z,81.46
2023-06-06T15:35:42.399Z,82.38
2023-06-06T15:40:48.729Z,82.94
2023-06-06T15:45:51.252Z,84.25
2023-06-06T15:50:54.023Z,84.97
2023-06-06T15:55:56.676Z,85.78
2023-06-06T16:00:59.523Z,86.73
2023-06-06T16:06:01.852Z,86.96
2023-06-06T16:11:06.289Z,87.09
2023-06-06T16:16:08.771Z,87.25
2023-06-06T16:21:11.684Z,87.12
2023-06-06T16:26:13.910Z,87.15
2023-06-06T16:31:16.229Z,87.06
2023-06-06T16:36:19.556Z,87.17
2023-06-06T16:41:23.272Z,87.04
2023-06-06T16:46:25.585Z,86.15
2023-06-06T16:51:27.880Z,85.25
2023-06-06T16:56:30.075Z,85.11
2023-06-06T17:01:32.487Z,85.13
2023-06-06T17:06:34.786Z,83.50
2023-06-06T17:11:37.052Z,83.43
2023-06-06T17:16:39.333Z,83.47
2023-06-06T17:21:42.473Z,83.20
2023-06-06T17:26:44.844Z,84.08
2023-06-06T17:31:47.803Z,84.98
2023-06-06T17:36:50.170Z,85.37
2023-06-06T17:41:52.481Z,85.94
2023-06-06T17:46:54.897Z,86.39
2023-06-06T17:51:57.248Z,86.66
2023-06-06T17:56:59.435Z,86.69
2023-06-06T18:02:01.638Z,87.43
2023-06-06T18:07:04.581Z,88.06
2023-06-06T18:12:07.990Z,86.87
2023-06-06T18:17:10.660Z,87.00
2023-06-06T18:22:13.031Z,87.34
2023-06-06T18:27:15.235Z,87.33
2023-06-06T18:32:18.612Z,86.03
2023-06-06T18:37:21.644Z,85.53
2023-06-06T18:42:23.985Z,83.48
2023-06-06T18:47:27.879Z,83.81
2023-06-06T18:52:30.130Z,86.06
2023-06-06T18:57:32.650Z,89.92
2023-06-06T19:02:36.521Z,91.99
2023-06-06T19:07:39.082Z,94.13
2023-06-06T19:17:46.989Z,100.00
2023-06-06T19:22:49.453Z,100.00
2023-06-06T19:27:52.090Z,100.00
2023-06-06T19:32:54.465Z,100.00
2023-06-06T19:37:56.672Z,100.00
2023-06-06T19:42:58.888Z,100.00
2023-06-06T19:48:01.107Z,100.00
2023-06-06T19:53:04.041Z,100.00
2023-06-06T19:58:07.661Z,100.00
2023-06-06T20:03:10.273Z,100.00
2023-06-06T20:08:12.642Z,100.00
2023-06-06T20:13:14.830Z,100.00
2023-06-06T20:18:17.542Z,100.00
2023-06-06T20:23:19.800Z,100.00
2023-06-06T20:28:22.131Z,100.00
2023-06-06T20:33:24.594Z,100.00
2023-06-06T20:38:27.393Z,100.00
2023-06-06T20:43:29.676Z,100.00
2023-06-06T20:48:31.955Z,100.00
2023-06-06T20:53:34.286Z,100.00
2023-06-06T20:58:36.491Z,100.00
2023-06-06T21:03:38.822Z,100.00
2023-06-06T21:08:41.472Z,100.00
2023-06-06T21:13:43.840Z,100.00
2023-06-06T21:18:46.083Z,100.00
2023-06-06T21:23:51.773Z,100.00
2023-06-06T21:28:53.999Z,100.00
2023-06-06T21:33:56.285Z,100.00
2023-06-06T21:38:58.612Z,100.00
2023-06-06T21:44:00.906Z,100.00
2023-06-06T21:49:03.798Z,100.00
2023-06-06T21:54:05.975Z,100.00
2023-06-06T21:59:08.272Z,100.00
2023-06-06T22:04:10.484Z,100.00
2023-06-06T22:09:13.341Z,100.00
2023-06-06T22:14:15.578Z,100.00
2023-06-06T22:19:17.900Z,100.00
2023-06-06T22:24:20.157Z,100.00
2023-06-06T22:29:22.523Z,100.00
2023-06-06T22:34:24.680Z,100.00
2023-06-06T22:39:26.943Z,100.00
2023-06-06T22:44:29.148Z,100.00
2023-06-06T22:49:31.431Z,100.00
2023-06-06T22:54:33.619Z,100.00
2023-06-06T22:59:35.940Z,100.00
2023-06-06T23:04:38.168Z,100.00
2023-06-06T23:09:40.333Z,100.00
2023-06-06T23:14:42.510Z,100.00
2023-06-06T23:19:44.714Z,100.00
2023-06-06T23:24:47.607Z,100.00
2023-06-06T23:29:49.769Z,100.00
2023-06-06T23:34:51.984Z,100.00
2023-06-06T23:39:55.100Z,100.00
2023-06-06T23:44:57.437Z,100.00
2023-06-06T23:49:59.682Z,100.00
2023-06-06T23:55:01.947Z,100.00
